Terminal Aerodrome Forecast
Issued by NWS

Home | Current Version | Previous Version | Text Only | Print | Product List | Glossary On
Versions: 1 2 3 4 5 6 7 8 9 10 11 12 13 14
000
FTUS42 TJSJ 310539
TAFISX
TAF
TISX 310539Z 3106/0106 06009KT P6SM FEW025
     FM311300 10015KT P6SM FEW030
     FM312230 08006KT P6SM VCSH SCT022 SCT040=

USA.gov is the U.S. government's official web portal to all federal, state and local government web resources and services.